Time;durP1;ratioP1;P1;durP2;ratioP2;P2;SDS_P1;SDS_P2;PMS_P1;PMS_P2;Temp;Humidity;BMP_temperature;BMP_pressure;BME280_temperature;BME280_humidity;BME280_pressure;Samples;Min_cycle;Max_cycle;Signal;HPM_P1;HPM_P2
2022/05/14 00:01:17;;;;;;;10.63;5.10;;;588.90;2432.00;;;;;;5014126;28;20021;-76
2022/05/14 00:03:44;;;;;;;10.35;5.65;;;588.90;2432.00;;;;;;5014235;28;20026;-77
2022/05/14 00:06:13;;;;;;;9.43;5.00;;;588.90;2432.00;;;;;;5014197;28;20097;-76
2022/05/14 00:08:39;;;;;;;7.57;4.13;;;588.90;2432.00;;;;;;5012771;28;20030;-78
2022/05/14 00:13:51;;;;;;;9.68;5.05;;;588.90;2432.00;;;;;;5013951;28;20045;-79
2022/05/14 00:16:18;;;;;;;9.48;5.25;;;588.80;2432.00;;;;;;5004087;28;20026;-79
2022/05/14 00:18:45;;;;;;;15.52;5.47;;;588.90;2432.00;;;;;;5009370;28;20072;-80
2022/05/14 00:21:11;;;;;;;9.80;4.00;;;588.80;2432.00;;;;;;5009274;28;20397;-78
2022/05/14 00:23:37;;;;;;;9.65;4.53;;;588.80;2432.00;;;;;;4992874;28;20457;-79
2022/05/14 00:26:03;;;;;;;10.80;5.68;;;588.80;2432.00;;;;;;4992400;28;20162;-78
2022/05/14 00:28:29;;;;;;;9.20;4.70;;;588.80;2432.00;;;;;;5009040;28;20470;-78
2022/05/14 00:30:55;;;;;;;16.65;9.98;;;588.80;2432.00;;;;;;4993562;28;20037;-80
2022/05/14 00:33:21;;;;;;;7.95;5.10;;;588.80;2432.00;;;;;;4993967;28;20097;-78
2022/05/14 00:35:47;;;;;;;10.00;7.65;;;588.80;2432.00;;;;;;4976539;28;20027;-78
2022/05/14 00:38:13;;;;;;;10.25;6.85;;;588.80;2432.00;;;;;;4992561;28;20035;-78
2022/05/14 00:40:40;;;;;;;8.95;6.30;;;588.80;2432.00;;;;;;4992223;28;20027;-78
2022/05/14 00:43:07;;;;;;;10.10;6.80;;;564.10;2432.00;;;;;;4993809;28;20062;-78
2022/05/14 00:45:36;;;;;;;8.90;5.63;;;564.10;2432.00;;;;;;4992263;28;20026;-77
2022/05/14 00:48:03;;;;;;;7.70;4.88;;;564.10;2432.00;;;;;;4993334;28;20505;-77
2022/05/14 00:50:36;;;;;;;8.93;4.50;;;564.10;2432.00;;;;;;4992425;28;20034;-78
2022/05/14 00:53:06;;;;;;;6.97;4.50;;;564.10;2432.00;;;;;;5008812;28;20036;-76
2022/05/14 00:55:32;;;;;;;7.75;3.92;;;564.00;2432.00;;;;;;4993385;28;20034;-77
2022/05/14 00:58:01;;;;;;;5.72;4.53;;;564.00;2432.00;;;;;;4993373;28;20028;-77
2022/05/14 01:00:27;;;;;;;5.90;3.67;;;564.00;2432.00;;;;;;5008482;28;20038;-77
2022/05/14 01:02:52;;;;;;;5.90;4.05;;;564.10;2432.00;;;;;;4993432;28;20394;-76
2022/05/14 01:05:20;;;;;;;7.25;4.13;;;564.00;2432.00;;;;;;4993195;28;20080;-77
2022/05/14 01:07:49;;;;;;;6.82;4.05;;;564.00;2432.00;;;;;;4992146;28;20058;-78
2022/05/14 01:10:18;;;;;;;7.57;4.07;;;564.00;2432.00;;;;;;4992980;28;20042;-78
2022/05/14 01:12:50;;;;;;;5.88;4.07;;;564.00;2432.00;;;;;;4992283;28;20363;-77
2022/05/14 01:15:22;;;;;;;5.78;3.80;;;563.90;2432.00;;;;;;4991974;28;20026;-77
2022/05/14 01:17:48;;;;;;;7.95;4.60;;;564.00;2432.00;;;;;;4993121;28;20485;-77
2022/05/14 01:20:19;;;;;;;9.88;5.10;;;563.90;2432.00;;;;;;4993157;28;20088;-77
2022/05/14 01:23:16;;;;;;;10.13;5.10;;;563.90;2432.00;;;;;;4993130;28;20026;-77
2022/05/14 01:28:44;;;;;;;15.82;5.15;;;563.90;2432.00;;;;;;4992741;28;20089;-77
2022/05/14 01:31:10;;;;;;;6.82;4.32;;;563.80;2432.00;;;;;;4991632;28;20022;-77
2022/05/14 01:33:36;;;;;;;7.78;4.45;;;563.80;2432.00;;;;;;4991551;28;20070;-77
2022/05/14 01:36:09;;;;;;;9.43;4.15;;;563.70;2432.00;;;;;;4991567;28;20488;-78
2022/05/14 01:38:35;;;;;;;9.10;4.55;;;563.60;2432.00;;;;;;4992516;28;20077;-76
2022/05/14 01:41:01;;;;;;;8.18;4.80;;;563.70;2432.00;;;;;;4992874;28;20037;-77
2022/05/14 01:43:28;;;;;;;9.38;3.97;;;563.60;2432.00;;;;;;4991458;28;20092;-77
2022/05/14 01:45:54;;;;;;;5.82;4.45;;;563.60;2432.00;;;;;;4991448;28;20022;-77
2022/05/14 01:48:20;;;;;;;9.27;5.10;;;563.50;2432.00;;;;;;4991170;28;20048;-78
2022/05/14 01:50:45;;;;;;;11.20;5.38;;;563.50;2432.00;;;;;;4992374;28;20034;-78
2022/05/14 01:53:11;;;;;;;7.55;3.95;;;563.50;2432.00;;;;;;4992623;28;20371;-79
2022/05/14 01:55:37;;;;;;;6.47;4.05;;;563.50;2432.00;;;;;;5007623;28;20023;-77
2022/05/14 02:00:48;;;;;;;6.28;3.88;;;563.50;2432.00;;;;;;4991657;28;20100;-77
2022/05/14 02:03:14;;;;;;;7.68;4.80;;;563.50;2432.00;;;;;;4992808;28;20458;-77
2022/05/14 02:05:40;;;;;;;7.93;3.97;;;563.40;2432.00;;;;;;4992375;28;20421;-76
2022/05/14 02:08:06;;;;;;;11.48;3.70;;;;;;;;;;4992504;28;20129;-77
2022/05/14 02:10:32;;;;;;;10.13;5.25;;;;;;;;;;4991086;28;20457;-78
2022/05/14 02:12:58;;;;;;;7.60;4.93;;;;;;;;;;4992535;28;20061;-79
2022/05/14 02:15:24;;;;;;;7.50;3.15;;;563.50;2432.00;;;;;;4989751;28;20093;-78
2022/05/14 02:17:50;;;;;;;10.70;4.63;;;563.20;2432.00;;;;;;5007432;28;20023;-79
2022/05/14 02:20:16;;;;;;;7.15;4.00;;;;;;;;;;4992351;28;20034;-77
2022/05/14 02:22:44;;;;;;;7.35;4.22;;;;;;;;;;4991080;28;20034;-77
2022/05/14 02:25:11;;;;;;;9.90;4.22;;;;;;;;;;4992173;28;20461;-77
2022/05/14 02:27:37;;;;;;;6.28;4.32;;;;;;;;;;4990998;28;20165;-76
2022/05/14 02:30:04;;;;;;;5.93;4.30;;;538.50;2406.40;;;;;;4992526;28;20138;-77
2022/05/14 02:32:30;;;;;;;6.28;3.88;;;538.40;2406.40;;;;;;4990865;28;20022;-77
2022/05/14 02:34:57;;;;;;;6.07;4.32;;;538.30;2406.40;;;;;;4991954;28;20069;-78
2022/05/14 02:37:25;;;;;;;6.43;3.90;;;538.30;2406.40;;;;;;4990708;28;20047;-78
2022/05/14 02:39:52;;;;;;;8.50;4.38;;;538.40;2406.40;;;;;;4990772;28;20038;-78
2022/05/14 02:42:18;;;;;;;9.02;4.60;;;538.30;2406.40;;;;;;4990853;28;20058;-78
2022/05/14 02:44:44;;;;;;;10.05;5.63;;;538.20;2406.40;;;;;;5007152;28;20425;-79
2022/05/14 02:47:10;;;;;;;8.88;4.80;;;538.10;2406.40;;;;;;4992551;28;20023;-77
2022/05/14 02:49:36;;;;;;;5.88;4.32;;;538.00;2406.40;;;;;;4992263;28;20493;-78
2022/05/14 02:52:03;;;;;;;9.68;5.47;;;537.90;2406.40;;;;;;4990899;28;20027;-78
2022/05/14 02:54:28;;;;;;;8.27;4.88;;;537.90;2406.40;;;;;;4990709;28;20073;-77
2022/05/14 02:56:54;;;;;;;6.97;5.45;;;537.90;2406.40;;;;;;4992157;28;20425;-77
2022/05/14 02:59:20;;;;;;;8.48;5.28;;;537.70;2406.40;;;;;;5007026;28;20474;-77
2022/05/14 03:01:49;;;;;;;9.15;5.25;;;537.80;2406.40;;;;;;4992329;28;20431;-77
2022/05/14 03:04:24;;;;;;;12.20;4.97;;;537.90;2406.40;;;;;;4991885;28;20509;-77
2022/05/14 03:06:52;;;;;;;7.22;4.35;;;537.80;2406.40;;;;;;4991696;28;20129;-77
2022/05/14 03:09:18;;;;;;;7.90;5.07;;;;;;;;;;4990126;28;20031;-77
2022/05/14 03:11:44;;;;;;;7.03;4.70;;;;;;;;;;4992451;28;20023;-77
2022/05/14 03:14:10;;;;;;;8.95;4.68;;;;;;;;;;4993391;28;20113;-78
2022/05/14 03:16:36;;;;;;;5.65;4.95;;;;;;;;;;4993313;28;20038;-76
2022/05/14 03:19:03;;;;;;;7.07;4.93;;;;;;;;;;4993278;28;20129;-77
2022/05/14 03:21:29;;;;;;;6.28;4.80;;;;;;;;;;4994532;28;20142;-77
2022/05/14 03:23:55;;;;;;;10.82;4.57;;;;;;;;;;4994802;28;20033;-77
2022/05/14 03:26:21;;;;;;;13.05;6.05;;;;;;;;;;4995277;28;20034;-77
2022/05/14 03:28:48;;;;;;;24.65;5.72;;;;;;;;;;4993915;28;20026;-78
2022/05/14 03:31:14;;;;;;;6.22;4.65;;;;;;;;;;4994892;28;20048;-77
2022/05/14 03:33:40;;;;;;;11.32;5.40;;;512.90;2380.80;;;;;;4995106;28;20026;-77
2022/05/14 03:36:07;;;;;;;7.32;4.85;;;;;;;;;;4993924;28;20033;-76
2022/05/14 03:38:33;;;;;;;7.32;4.88;;;;;;;;;;4994666;28;20029;-77
2022/05/14 03:40:59;;;;;;;5.82;4.65;;;;;;;;;;4993775;28;20029;-77
2022/05/14 03:43:25;;;;;;;14.10;5.85;;;;;;;;;;4993531;28;20057;-77
2022/05/14 03:45:51;;;;;;;5.82;4.63;;;;;;;;;;4995212;28;20069;-77
2022/05/14 03:48:17;;;;;;;9.55;4.75;;;;;;;;;;4993586;28;20490;-79
2022/05/14 03:50:43;;;;;;;8.18;5.20;;;;;;;;;;4994810;28;20066;-76
2022/05/14 03:53:10;;;;;;;6.82;4.75;;;;;;;;;;4994451;28;20015;-76
2022/05/14 03:55:36;;;;;;;8.10;5.13;;;;;;;;;;4993472;28;20022;-78
2022/05/14 03:58:02;;;;;;;10.75;5.18;;;;;;;;;;4994625;28;20030;-77
2022/05/14 04:00:28;;;;;;;6.80;4.93;;;;;;;;;;4997436;28;20038;-77
2022/05/14 04:02:54;;;;;;;9.65;4.90;;;;;;;;;;5014126;28;20021;-77
2022/05/14 04:05:20;;;;;;;8.35;4.85;;;;;;;;;;5012597;28;20056;-77
2022/05/14 04:07:47;;;;;;;8.68;4.68;;;;;;;;;;5014224;28;20025;-78
2022/05/14 04:10:16;;;;;;;8.25;4.53;;;;;;;;;;5012724;28;20029;-77
2022/05/14 04:12:42;;;;;;;8.68;4.50;;;;;;;;;;5012739;28;20029;-77
2022/05/14 04:15:08;;;;;;;7.45;4.70;;;;;;;;;;5012646;28;20486;-76
2022/05/14 04:17:34;;;;;;;7.82;5.00;;;;;;;;;;5012621;28;20026;-77
2022/05/14 04:20:00;;;;;;;7.65;5.05;;;;;;;;;;5012542;28;20038;-76
2022/05/14 04:22:30;;;;;;;6.13;4.30;;;538.00;2406.40;;;;;;5012542;28;20396;-77
2022/05/14 04:24:56;;;;;;;7.07;4.85;;;537.90;2406.40;;;;;;5013626;28;20025;-78
2022/05/14 04:27:22;;;;;;;10.75;5.43;;;;;;;;;;5013643;28;20030;-77
2022/05/14 04:29:48;;;;;;;12.60;5.35;;;538.40;2406.40;;;;;;5012318;28;20025;-77
2022/05/14 04:32:14;;;;;;;14.82;5.85;;;;;;;;;;5012283;28;20029;-77
2022/05/14 04:34:40;;;;;;;7.30;4.65;;;;;;;;;;5013569;28;20087;-78
2022/05/14 04:37:06;;;;;;;8.50;4.57;;;;;;;;;;5012219;28;20021;-76
2022/05/14 04:39:32;;;;;;;6.40;4.22;;;;;;;;;;5012046;28;20066;-78
2022/05/14 04:42:03;;;;;;;10.80;4.53;;;;;;;;;;5013427;28;20460;-77
2022/05/14 04:44:29;;;;;;;8.00;4.57;;;;;;;;;;5013581;28;20027;-77
2022/05/14 04:46:56;;;;;;;7.68;4.15;;;;;;;;;;5011985;28;20053;-78
2022/05/14 04:49:22;;;;;;;6.10;3.95;;;;;;;;;;5013255;28;20057;-78
2022/05/14 04:51:48;;;;;;;9.60;4.72;;;;;;;;;;5013297;28;20663;-79
2022/05/14 04:54:15;;;;;;;6.60;3.63;;;;;;;;;;5011878;28;20018;-78
2022/05/14 04:56:42;;;;;;;9.35;5.55;;;;;;;;;;5013281;28;20033;-78
2022/05/14 04:59:08;;;;;;;6.30;4.50;;;;;;;;;;5011646;28;20037;-78
2022/05/14 05:01:34;;;;;;;5.60;4.03;;;;;;;;;;5012987;28;20026;-78
2022/05/14 05:04:00;;;;;;;6.78;4.25;;;;;;;;;;5011319;28;20116;-78
2022/05/14 05:06:27;;;;;;;6.03;4.10;;;;;;;;;;5012980;28;20053;-78
2022/05/14 05:08:52;;;;;;;8.43;4.00;;;563.50;2432.00;;;;;;5012083;28;20033;-78
2022/05/14 05:11:19;;;;;;;8.18;4.32;;;563.30;2432.00;;;;;;5012955;28;20026;-77
2022/05/14 05:13:45;;;;;;;9.45;3.83;;;563.30;2432.00;;;;;;5011970;28;20366;-78
2022/05/14 05:16:11;;;;;;;4.65;3.75;;;563.20;2432.00;;;;;;5011005;28;20041;-77
2022/05/14 05:18:37;;;;;;;8.65;5.30;;;;;;;;;;5011340;28;20036;-78
2022/05/14 05:21:03;;;;;;;5.57;4.10;;;;;;;;;;5012495;28;20389;-77
2022/05/14 05:23:30;;;;;;;4.90;3.60;;;;;;;;;;5011339;28;20034;-78
2022/05/14 05:25:57;;;;;;;4.85;3.80;;;;;;;;;;5012663;28;20045;-77
2022/05/14 05:28:23;;;;;;;8.80;5.03;;;;;;;;;;5011285;28;20026;-77
2022/05/14 05:30:49;;;;;;;7.43;3.40;;;;;;;;;;5012449;28;20018;-77
2022/05/14 05:33:17;;;;;;;5.78;3.78;;;;;;;;;;5012493;28;20022;-78
2022/05/14 05:35:43;;;;;;;4.43;3.60;;;;;;;;;;5010255;28;20492;-78
2022/05/14 05:38:09;;;;;;;5.32;3.47;;;;;;;;;;5012460;28;20053;-79
2022/05/14 05:40:36;;;;;;;11.70;4.18;;;;;;;;;;5012524;28;20030;-78
2022/05/14 05:43:04;;;;;;;6.53;3.90;;;;;;;;;;5011042;28;20017;-78
2022/05/14 05:45:31;;;;;;;11.02;4.90;;;;;;;;;;5010583;28;20021;-77
2022/05/14 05:47:58;;;;;;;6.28;4.45;;;;;;;;;;5010922;28;20018;-77
2022/05/14 05:50:24;;;;;;;8.25;4.03;;;;;;;;;;5012199;28;20018;-78
2022/05/14 05:52:51;;;;;;;8.68;3.80;;;;;;;;;;5010958;28;20030;-77
2022/05/14 05:58:03;;;;;;;9.75;4.22;;;;;;;;;;5011375;28;20032;-77
2022/05/14 06:00:29;;;;;;;7.07;3.50;;;;;;;;;;5010675;28;20038;-77
2022/05/14 06:02:56;;;;;;;4.10;3.35;;;;;;;;;;5010552;28;20064;-78
2022/05/14 06:05:22;;;;;;;4.60;3.38;;;;;;;;;;5010550;28;20034;-77
2022/05/14 06:07:48;;;;;;;7.45;5.00;;;;;;;;;;5010797;28;20018;-78
2022/05/14 06:10:18;;;;;;;6.20;3.20;;;;;;;;;;5010542;28;20165;-77
2022/05/14 06:12:46;;;;;;;8.57;3.17;;;;;;;;;;5010629;28;20018;-78
2022/05/14 06:15:15;;;;;;;4.20;3.53;;;;;;;;;;5011968;28;20018;-78
2022/05/14 06:17:41;;;;;;;4.93;3.42;;;;;;;;;;5011010;28;20519;-78
2022/05/14 06:20:09;;;;;;;8.25;3.95;;;;;;;;;;5010147;28;20042;-77
2022/05/14 06:22:35;;;;;;;9.70;3.72;;;;;;;;;;5011763;28;20069;-78
2022/05/14 06:25:01;;;;;;;5.38;3.80;;;;;;;;;;5010610;28;20421;-78
2022/05/14 06:27:27;;;;;;;6.82;4.10;;;;;;;;;;5012153;28;20014;-78
2022/05/14 06:29:53;;;;;;;5.07;3.22;;;;;;;;;;5010513;28;20385;-78
2022/05/14 06:32:19;;;;;;;10.73;6.28;;;;;;;;;;5011539;28;20033;-79
2022/05/14 06:34:46;;;;;;;4.30;3.10;;;;;;;;;;5011690;28;20076;-78
2022/05/14 06:37:13;;;;;;;4.60;2.88;;;;;;;;;;4998777;28;20023;-78
2022/05/14 06:39:39;;;;;;;5.47;4.18;;;588.80;2432.00;;;;;;4990662;28;20061;-78
2022/05/14 06:42:05;;;;;;;7.53;3.25;;;;;;;;;;4991818;28;20026;-77
2022/05/14 06:44:32;;;;;;;5.43;3.70;;;;;;;;;;4990679;28;20025;-78
2022/05/14 06:46:58;;;;;;;6.50;3.25;;;;;;;;;;4992740;28;20066;-78
2022/05/14 06:49:24;;;;;;;5.55;4.32;;;;;;;;;;4995527;28;20134;-76
2022/05/14 06:51:52;;;;;;;7.05;5.28;;;;;;;;;;4995714;28;20102;-77
2022/05/14 06:54:19;;;;;;;10.88;8.15;;;;;;;;;;4994360;28;20474;-77
2022/05/14 06:56:45;;;;;;;8.70;5.90;;;;;;;;;;4995311;28;20022;-77
2022/05/14 06:59:12;;;;;;;10.50;6.63;;;;;;;;;;4995725;28;20034;-77
2022/05/14 07:01:39;;;;;;;12.48;5.43;;;;;;;;;;4994238;28;20023;-77
2022/05/14 07:06:52;;;;;;;7.90;5.07;;;;;;;;;;5013593;28;20153;-78
2022/05/14 07:09:23;;;;;;;8.30;5.45;;;;;;;;;;5011095;28;20026;-77
2022/05/14 07:11:50;;;;;;;6.95;4.65;;;;;;;;;;5013643;28;20036;-77
2022/05/14 07:14:16;;;;;;;6.53;3.85;;;;;;;;;;4996594;28;20677;-79
2022/05/14 07:16:43;;;;;;;6.30;4.35;;;;;;;;;;4999328;28;20104;-78
2022/05/14 07:19:10;;;;;;;6.40;4.25;;;;;;;;;;4996259;28;20490;-78
2022/05/14 07:21:37;;;;;;;6.93;3.05;;;;;;;;;;4999733;28;21388;-78
2022/05/14 07:24:07;;;;;;;8.23;3.47;;;;;;;;;;4997884;28;20019;-78
2022/05/14 07:26:36;;;;;;;5.03;3.22;;;;;;;;;;5011596;28;20014;-78
2022/05/14 07:29:07;;;;;;;6.53;3.90;;;;;;;;;;5013574;28;20044;-77
2022/05/14 07:31:34;;;;;;;5.50;3.45;;;;;;;;;;5007966;28;20050;-78
2022/05/14 07:34:00;;;;;;;7.70;3.28;;;;;;;;;;4998995;28;20019;-78
2022/05/14 07:36:28;;;;;;;11.35;3.45;;;;;;;;;;5013549;28;20029;-78
2022/05/14 07:38:56;;;;;;;7.90;4.13;;;;;;;;;;5014428;28;20073;-77
2022/05/14 07:41:22;;;;;;;8.25;4.03;;;;;;;;;;5013670;28;20428;-78
2022/05/14 07:43:49;;;;;;;9.68;3.47;;;;;;;;;;4998721;28;20015;-77
2022/05/14 07:46:17;;;;;;;6.15;4.53;;;;;;;;;;5013423;28;20511;-79
2022/05/14 07:48:43;;;;;;;6.85;4.32;;;;;;;;;;5013190;28;20026;-77
2022/05/14 07:51:10;;;;;;;11.40;5.72;;;;;;;;;;5012837;28;20030;-78
2022/05/14 07:53:37;;;;;;;5.57;4.05;;;;;;;;;;5012677;28;20022;-79
2022/05/14 07:56:04;;;;;;;3.70;2.47;;;;;;;;;;5013632;28;20030;-79
2022/05/14 07:58:30;;;;;;;6.97;3.78;;;;;;;;;;5000001;28;20568;-80
2022/05/14 08:00:57;;;;;;;7.78;3.05;;;;;;;;;;5006539;28;20054;-77
2022/05/14 08:03:24;;;;;;;5.13;2.90;;;;;;;;;;4998493;28;20022;-78
2022/05/14 08:05:53;;;;;;;5.28;2.90;;;;;;;;;;5012778;28;20516;-80
2022/05/14 08:08:20;;;;;;;4.18;2.72;;;;;;;;;;5012650;28;20370;-79
2022/05/14 08:10:46;;;;;;;5.80;2.55;;;;;;;;;;5012400;28;20381;-79
2022/05/14 08:13:15;;;;;;;6.82;3.53;;;;;;;;;;5012622;28;20018;-77
2022/05/14 08:15:42;;;;;;;5.90;3.58;;;;;;;;;;5012317;28;20029;-78
2022/05/14 08:18:08;;;;;;;10.25;4.68;;;;;;;;;;5013926;28;20026;-81
2022/05/14 08:20:34;;;;;;;9.93;3.58;;;;;;;;;;5012553;28;20044;-84
2022/05/14 08:25:45;;;;;;;9.32;4.05;;;;;;;;;;5013160;28;20393;-79
2022/05/14 08:28:11;;;;;;;5.93;3.63;;;;;;;;;;5013283;28;20056;-80
2022/05/14 08:30:37;;;;;;;9.48;4.00;;;;;;;;;;5008722;28;20021;-79
2022/05/14 08:33:07;;;;;;;6.63;3.65;;;;;;;;;;5011612;28;20022;-78
2022/05/14 08:35:33;;;;;;;3.60;2.67;;;;;;;;;;5011423;28;20021;-78
2022/05/14 08:37:59;;;;;;;5.22;3.75;;;;;;;;;;5011750;28;20068;-77
2022/05/14 08:40:40;;;;;;;7.95;4.00;;;;;;;;;;5013205;28;20038;-76
2022/05/14 08:43:10;;;;;;;8.88;3.60;;;;;;;;;;5012238;28;20362;-78
2022/05/14 08:45:37;;;;;;;4.18;2.90;;;;;;;;;;5011709;28;20072;-78
2022/05/14 08:48:20;;;;;;;7.13;2.45;;;;;;;;;;5011966;28;20073;-78
2022/05/14 08:50:58;;;;;;;7.07;2.90;;;;;;;;;;5012894;28;20030;-77
2022/05/14 08:53:25;;;;;;;5.88;4.35;;;;;;;;;;5011822;28;20021;-79
2022/05/14 08:56:01;;;;;;;3.45;2.28;;;;;;;;;;5012349;28;20101;-78
2022/05/14 08:58:45;;;;;;;9.35;3.10;;;;;;;;;;5012566;28;20033;-77
2022/05/14 09:01:13;;;;;;;5.65;3.22;;;;;;;;;;5011488;28;20539;-77
2022/05/14 09:03:43;;;;;;;10.85;3.53;;;;;;;;;;5011519;28;20033;-77
2022/05/14 09:06:09;;;;;;;15.05;5.50;;;;;;;;;;5012775;28;20053;-77
2022/05/14 09:08:35;;;;;;;8.98;3.80;;;;;;;;;;5026841;28;20032;-76
2022/05/14 09:11:11;;;;;;;10.20;4.15;;;;;;;;;;5010285;28;20029;-77
2022/05/14 09:13:44;;;;;;;6.80;3.30;;;;;;;;;;5010532;28;20030;-78
2022/05/14 09:16:10;;;;;;;;;;;;;;;;;;5009715;28;20038;-82
2022/05/14 09:18:46;;;;;;;5.47;2.63;;;;;;;;;;5010128;28;19916;-80
2022/05/14 09:21:30;;;;;;;7.60;4.10;;;614.90;2329.60;;;;;;5010778;28;20022;-78
2022/05/14 09:24:17;;;;;;;5.57;3.28;;;614.90;2304.00;;;;;;5010980;28;20024;-77
2022/05/14 09:26:43;;;;;;;5.70;2.70;;;615.20;2278.40;;;;;;5009499;28;20022;-82
2022/05/14 09:29:21;;;;;;;5.03;3.05;;;614.90;2406.40;;;;;;5009909;28;20630;-79
2022/05/14 09:31:59;;;;;;;4.10;3.03;;;614.90;2355.20;;;;;;5005950;28;20030;-81
2022/05/14 09:34:27;;;;;;;6.53;3.30;;;614.70;2432.00;;;;;;5005955;28;20037;-80
2022/05/14 09:36:58;;;;;;;7.78;2.88;;;614.50;2432.00;;;;;;5008515;28;20728;-80
2022/05/14 09:39:24;;;;;;;5.43;2.83;;;614.50;2432.00;;;;;;5002527;28;20060;-79
2022/05/14 09:42:04;;;;;;;3.00;2.00;;;614.70;2432.00;;;;;;5009495;28;20054;-80
2022/05/14 09:44:42;;;;;;;4.50;3.13;;;614.50;2432.00;;;;;;5006027;28;20129;-79
2022/05/14 09:47:09;;;;;;;9.45;3.00;;;614.90;2380.80;;;;;;5002950;28;20054;-77
2022/05/14 09:49:40;;;;;;;7.50;3.55;;;;;;;;;;5009565;28;20465;-79
2022/05/14 09:52:13;;;;;;;4.30;2.72;;;614.90;2355.20;;;;;;5011075;28;20022;-78
2022/05/14 09:54:48;;;;;;;6.40;3.65;;;614.70;2406.40;;;;;;5007162;28;21483;-78
2022/05/14 09:57:22;;;;;;;4.75;3.33;;;614.70;2355.20;;;;;;5008995;28;20038;-79
2022/05/14 09:59:51;;;;;;;4.68;2.22;;;614.70;2432.00;;;;;;5006659;28;20049;-78
2022/05/14 10:02:35;;;;;;;5.25;3.85;;;614.70;2432.00;;;;;;5010405;28;20033;-76
2022/05/14 10:05:16;;;;;;;7.68;4.35;;;614.50;2432.00;;;;;;5008989;28;20060;-79
2022/05/14 10:08:00;;;;;;;11.27;2.75;;;615.00;2304.00;;;;;;5011638;28;20073;-79
2022/05/14 10:10:35;;;;;;;8.05;3.22;;;614.80;2355.20;;;;;;5011030;28;20026;-80
2022/05/14 10:13:14;;;;;;;4.00;2.67;;;615.20;2201.60;;;;;;5012227;28;20115;-79
2022/05/14 10:15:50;;;;;;;4.35;2.55;;;615.10;2176.00;;;;;;5011810;28;20034;-78
2022/05/14 10:18:16;;;;;;;15.63;4.40;;;;;;;;;;5010170;28;20030;-78
2022/05/14 10:20:46;;;;;;;7.85;3.13;;;;;;;;;;5010546;28;20176;-79
2022/05/14 10:29:00;;;;;;;6.65;2.60;;;;;;;;;;5016829;28;20041;-79
2022/05/14 10:31:38;;;;;;;8.73;3.83;;;;;;;;;;5016307;28;20141;-80
2022/05/14 10:34:08;;;;;;;7.90;4.03;;;;;;;;;;5014752;28;20388;-79
2022/05/14 10:36:37;;;;;;;13.32;3.58;;;;;;;;;;5014476;28;20022;-81
2022/05/14 10:39:09;;;;;;;4.55;1.90;;;;;;;;;;5000836;28;20042;-78
2022/05/14 10:41:35;;;;;;;5.18;2.83;;;;;;;;;;4994514;28;20030;-77
2022/05/14 10:44:06;;;;;;;5.25;3.40;;;;;;;;;;4996758;28;20109;-78
2022/05/14 10:46:34;;;;;;;21.77;3.15;;;;;;;;;;4994284;28;20049;-78
2022/05/14 10:49:14;;;;;;;7.15;2.65;;;;;;;;;;4994539;28;20034;-79
2022/05/14 10:51:44;;;;;;;3.60;2.72;;;;;;;;;;4995693;28;20061;-78
2022/05/14 10:54:17;;;;;;;4.35;2.55;;;;;;;;;;4995565;28;20101;-78
2022/05/14 10:56:52;;;;;;;7.78;3.03;;;;;;;;;;4995884;28;20026;-77
2022/05/14 10:59:28;;;;;;;5.78;4.00;;;;;;;;;;4995110;28;20490;-79
2022/05/14 11:01:54;;;;;;;5.53;3.45;;;;;;;;;;4993973;28;20022;-79
2022/05/14 11:04:28;;;;;;;4.18;2.67;;;;;;;;;;5007690;28;20049;-79
2022/05/14 11:06:55;;;;;;;3.97;2.67;;;;;;;;;;5014752;28;20038;-80
2022/05/14 11:09:23;;;;;;;7.18;3.60;;;;;;;;;;5013834;28;20037;-78
2022/05/14 11:11:51;;;;;;;4.30;2.75;;;;;;;;;;5012942;28;20033;-78
2022/05/14 11:14:17;;;;;;;6.53;3.17;;;;;;;;;;5014268;28;20017;-79
2022/05/14 11:16:49;;;;;;;6.55;3.15;;;;;;;;;;5015270;28;20045;-80
2022/05/14 11:19:27;;;;;;;3.92;2.55;;;;;;;;;;5014711;28;20039;-79
2022/05/14 11:21:54;;;;;;;18.13;2.70;;;;;;;;;;5014956;28;20042;-80
2022/05/14 11:24:30;;;;;;;4.90;2.90;;;;;;;;;;5013308;28;20322;-79
2022/05/14 11:26:56;;;;;;;4.25;3.17;;;;;;;;;;5013396;28;20520;-78
2022/05/14 11:29:27;;;;;;;7.20;3.78;;;;;;;;;;5014299;28;20022;-79
2022/05/14 11:32:02;;;;;;;5.63;3.33;;;;;;;;;;5014377;28;20112;-80
2022/05/14 11:34:28;;;;;;;9.30;2.88;;;;;;;;;;5014704;28;20073;-80
2022/05/14 11:36:56;;;;;;;6.45;3.90;;;;;;;;;;5014672;28;20037;-79
2022/05/14 11:39:22;;;;;;;4.65;3.50;;;;;;;;;;5013248;28;20069;-79
2022/05/14 11:41:49;;;;;;;9.52;2.75;;;;;;;;;;5013107;28;20026;-79
2022/05/14 11:44:25;;;;;;;6.75;3.08;;;;;;;;;;5014985;28;20093;-78
2022/05/14 11:46:51;;;;;;;6.43;3.00;;;;;;;;;;5013080;28;20036;-79
2022/05/14 11:49:21;;;;;;;4.13;2.78;;;;;;;;;;5014257;28;20026;-80
2022/05/14 11:51:57;;;;;;;8.50;3.13;;;;;;;;;;5014683;28;20022;-80
2022/05/14 11:54:43;;;;;;;5.32;3.22;;;;;;;;;;5014252;28;20081;-83
2022/05/14 11:57:13;;;;;;;5.32;3.15;;;;;;;;;;5003666;28;20041;-80
2022/05/14 11:59:59;;;;;;;4.55;3.10;;;;;;;;;;5014450;28;20037;-81
2022/05/14 12:02:28;;;;;;;8.02;2.90;;;;;;;;;;5003665;28;20425;-80
2022/05/14 12:04:56;;;;;;;5.40;2.78;;;;;;;;;;5013809;28;20061;-80
2022/05/14 12:07:25;;;;;;;4.20;3.40;;;;;;;;;;5014161;28;20061;-82
2022/05/14 12:09:51;;;;;;;5.53;3.47;;;;;;;;;;5014133;28;20088;-82
2022/05/14 12:12:29;;;;;;;4.95;3.00;;;;;;;;;;5014247;28;20466;-82
2022/05/14 12:14:56;;;;;;;5.85;3.90;;;;;;;;;;5013757;28;20030;-78
2022/05/14 12:17:22;;;;;;;9.45;3.88;;;;;;;;;;5013555;28;20026;-78
2022/05/14 12:19:56;;;;;;;4.35;3.33;;;;;;;;;;5013635;28;20088;-80
2022/05/14 12:22:23;;;;;;;6.13;3.08;;;;;;;;;;5014039;28;20061;-81
2022/05/14 12:24:57;;;;;;;7.63;3.05;;;;;;;;;;5012698;28;20068;-82
2022/05/14 12:27:23;;;;;;;8.13;2.97;;;;;;;;;;5012533;28;20362;-81
2022/05/14 12:30:00;;;;;;;9.60;3.70;;;;;;;;;;5012549;28;20116;-83
2022/05/14 12:35:29;;;;;;;8.38;3.60;;;;;;;;;;5013848;28;20092;-81
2022/05/14 12:37:56;;;;;;;9.18;3.47;;;;;;;;;;5012580;28;20076;-82
2022/05/14 12:40:33;;;;;;;10.35;3.05;;;;;;;;;;5013590;28;20128;-83
2022/05/14 12:43:00;;;;;;;7.80;3.80;;;;;;;;;;5012608;28;20022;-82
2022/05/14 12:45:35;;;;;;;6.68;3.63;;;;;;;;;;5011447;28;20121;-81
2022/05/14 12:48:02;;;;;;;5.13;2.55;;;;;;;;;;5013746;28;20033;-81
2022/05/14 12:50:33;;;;;;;4.93;3.05;;;;;;;;;;5013474;28;20507;-80
2022/05/14 12:53:19;;;;;;;8.30;2.83;;;;;;;;;;5012495;28;20022;-85
2022/05/14 12:55:48;;;;;;;6.78;3.97;;;;;;;;;;5011853;28;20112;-83
2022/05/14 12:58:15;;;;;;;16.80;3.03;;;;;;;;;;5013378;28;20026;-83
2022/05/14 13:00:45;;;;;;;9.02;3.17;;;;;;;;;;5012639;28;20033;-79
2022/05/14 13:03:20;;;;;;;8.45;3.15;;;;;;;;;;5012449;28;20034;-79
2022/05/14 13:05:53;;;;;;;4.85;2.75;;;;;;;;;;5010604;28;20099;-80
2022/05/14 13:08:21;;;;;;;6.35;2.28;;;;;;;;;;5012441;28;20025;-80
2022/05/14 13:10:49;;;;;;;7.65;2.50;;;;;;;;;;5012700;28;20025;-80
2022/05/14 13:13:16;;;;;;;3.58;2.35;;;;;;;;;;5011154;28;20029;-79
2022/05/14 13:15:53;;;;;;;7.80;3.00;;;;;;;;;;5008817;28;20029;-78
2022/05/14 13:18:23;;;;;;;8.73;3.55;;;;;;;;;;5008088;28;20132;-78
2022/05/14 13:21:06;;;;;;;5.30;2.53;;;;;;;;;;5011245;28;20053;-78
2022/05/14 13:23:36;;;;;;;7.75;2.78;;;;;;;;;;5008532;28;20037;-77
2022/05/14 13:26:02;;;;;;;8.50;2.50;;;;;;;;;;5011071;28;20389;-76
2022/05/14 13:28:33;;;;;;;6.25;3.40;;;;;;;;;;5012200;28;20022;-77
2022/05/14 13:31:00;;;;;;;8.23;2.90;;;;;;;;;;5012432;28;20054;-77
2022/05/14 13:33:30;;;;;;;8.90;3.30;;;;;;;;;;5011128;28;20531;-78
2022/05/14 13:39:02;;;;;;;4.15;2.35;;;;;;;;;;5012179;28;20493;-77
2022/05/14 13:41:30;;;;;;;8.43;3.30;;;;;;;;;;5012086;28;20018;-78
2022/05/14 13:44:00;;;;;;;7.07;3.50;;;;;;;;;;5012367;28;20025;-83
2022/05/14 13:46:29;;;;;;;4.57;3.25;;;;;;;;;;5012895;28;20136;-88
2022/05/14 13:48:55;;;;;;;5.75;4.03;;;;;;;;;;5013619;28;20026;-89
2022/05/14 13:51:36;;;;;;;5.25;2.70;;;;;;;;;;5013256;28;20022;-79
2022/05/14 13:54:08;;;;;;;11.10;3.17;;;;;;;;;;5009763;28;20214;-79
2022/05/14 13:56:34;;;;;;;7.15;3.38;;;;;;;;;;5011278;28;20049;-79
2022/05/14 13:59:05;;;;;;;4.20;3.10;;;;;;;;;;5011924;28;20521;-80
2022/05/14 14:01:48;;;;;;;14.07;3.53;;;;;;;;;;5010709;28;20500;-80
2022/05/14 14:04:31;;;;;;;4.65;3.50;;;;;;;;;;5012267;28;20056;-80
2022/05/14 14:07:01;;;;;;;5.97;4.00;;;;;;;;;;5010350;28;20524;-78
2022/05/14 14:09:28;;;;;;;5.78;3.40;;;;;;;;;;5012146;28;20339;-79
2022/05/14 14:11:54;;;;;;;5.85;3.22;;;;;;;;;;5010339;28;20056;-78
2022/05/14 14:14:21;;;;;;;6.25;3.60;;;;;;;;;;5010456;28;20026;-79
2022/05/14 14:16:47;;;;;;;7.32;5.38;;;;;;;;;;5012101;28;20022;-78
2022/05/14 14:19:13;;;;;;;5.50;3.50;;;;;;;;;;5011670;28;20489;-79
2022/05/14 14:21:39;;;;;;;6.28;3.28;;;;;;;;;;5010559;28;20025;-78
2022/05/14 14:24:07;;;;;;;5.82;4.28;;;;;;;;;;5009836;28;20072;-79
2022/05/14 14:26:34;;;;;;;7.03;3.85;;;;;;;;;;5012104;28;20026;-79
2022/05/14 14:29:01;;;;;;;5.75;3.55;;;;;;;;;;5010426;28;20539;-79
2022/05/14 14:31:27;;;;;;;9.48;3.83;;;;;;;;;;5011673;28;20018;-78